Time;durP1;ratioP1;P1;durP2;ratioP2;P2;SDS_P1;SDS_P2;PMS_P1;PMS_P2;Temp;Humidity;BMP_temperature;BMP_pressure;BME280_temperature;BME280_humidity;BME280_pressure;Samples;Min_cycle;Max_cycle;Signal;HPM_P1;HPM_P2
2022/07/15 00:01:58;;;;;;;11.07;2.40;;;;;;;;;;5019610;28;20310;-70
2022/07/15 00:04:24;;;;;;;8.63;2.13;;;;;;;;;;5021503;28;20556;-70
2022/07/15 00:06:49;;;;;;;8.73;2.17;;;;;;;;;;5023656;28;20182;-70
2022/07/15 00:09:14;;;;;;;6.38;1.98;;;;;;;;;;5027532;28;20205;-70
2022/07/15 00:11:40;;;;;;;4.75;1.90;;;;;;;;;;5014745;28;20190;-70
2022/07/15 00:14:05;;;;;;;12.45;2.60;;;;;;;;;;5016879;28;20182;-70
2022/07/15 00:16:30;;;;;;;7.47;1.98;;;;;;;;;;5020317;28;20184;-70
2022/07/15 00:18:56;;;;;;;8.30;2.10;;;;;;;;;;5025143;28;20175;-70
2022/07/15 00:21:21;;;;;;;12.15;2.22;;;;;;;;;;5028515;28;20660;-70
2022/07/15 00:23:46;;;;;;;7.38;2.13;;;;;;;;;;5024742;28;20553;-70
2022/07/15 00:26:12;;;;;;;6.40;1.95;;;;;;;;;;5022293;28;20201;-70
2022/07/15 00:28:37;;;;;;;6.97;2.03;;;;;;;;;;5022357;28;20186;-70
2022/07/15 00:31:02;;;;;;;9.30;2.13;;;;;;;;;;5014115;28;20300;-70
2022/07/15 00:33:28;;;;;;;7.78;2.22;;;;;;;;;;5014600;28;20607;-70
2022/07/15 00:35:53;;;;;;;7.55;1.83;;;;;;;;;;5019711;28;20655;-70
2022/07/15 00:38:19;;;;;;;7.07;2.20;;;;;;;;;;5022771;28;20210;-70
2022/07/15 00:40:49;;;;;;;8.80;2.17;;;;;;;;;;5017387;28;20256;-69
2022/07/15 00:43:16;;;;;;;9.68;2.20;;;;;;;;;;5033300;28;20187;-69
2022/07/15 00:45:42;;;;;;;7.30;2.50;;;;;;;;;;5019601;28;20187;-69
2022/07/15 00:48:08;;;;;;;8.57;2.17;;;;;;;;;;5030065;28;20213;-70
2022/07/15 00:50:33;;;;;;;9.63;2.15;;;;;;;;;;5031708;28;20728;-70
2022/07/15 00:53:10;;;;;;;8.02;2.30;;;;;;;;;;5030011;28;20244;-71
2022/07/15 00:55:46;;;;;;;8.52;2.20;;;;;;;;;;5026398;28;20174;-69
2022/07/15 00:58:20;;;;;;;4.85;2.30;;;;;;;;;;5033432;28;20612;-70
2022/07/15 01:00:47;;;;;;;8.35;2.20;;;;;;;;;;5028288;28;20181;-71
2022/07/15 01:03:16;;;;;;;9.40;2.63;;;;;;;;;;5038726;28;20205;-71
2022/07/15 01:05:41;;;;;;;7.07;2.10;;;;;;;;;;5034600;28;20193;-71
2022/07/15 01:08:07;;;;;;;7.13;3.05;;;;;;;;;;5024507;28;20189;-71
2022/07/15 01:10:34;;;;;;;7.22;2.05;;;;;;;;;;5031937;28;20810;-70
2022/07/15 01:13:02;;;;;;;8.85;2.55;;;;;;;;;;5032400;28;20188;-71
2022/07/15 01:15:31;;;;;;;9.27;2.58;;;;;;;;;;5033903;28;20767;-71
2022/07/15 01:17:56;;;;;;;8.98;2.22;;;;;;;;;;5029237;28;20220;-71
2022/07/15 01:20:22;;;;;;;8.05;2.22;;;;;;;;;;5028135;28;20272;-70
2022/07/15 01:22:47;;;;;;;6.93;2.70;;;;;;;;;;5025400;28;20214;-70
2022/07/15 01:25:14;;;;;;;8.75;2.63;;;;;;;;;;5027183;28;20183;-71
2022/07/15 01:27:41;;;;;;;8.02;2.30;;;;;;;;;;5023266;28;20645;-70
2022/07/15 01:30:07;;;;;;;7.80;2.70;;;;;;;;;;5025784;28;20682;-70
2022/07/15 01:32:32;;;;;;;8.45;2.42;;;;;;;;;;5030231;28;20202;-70
2022/07/15 01:34:58;;;;;;;9.48;2.63;;;;;;;;;;5030752;28;20193;-70
2022/07/15 01:37:23;;;;;;;10.23;2.85;;;;;;;;;;5024529;28;20213;-70
2022/07/15 01:39:48;;;;;;;8.23;2.40;;;;;;;;;;5025254;28;20189;-70
2022/07/15 01:42:14;;;;;;;6.85;2.30;;;;;;;;;;5030935;28;20178;-70
2022/07/15 01:44:39;;;;;;;8.20;2.67;;;;;;;;;;5023136;28;20271;-70
2022/07/15 01:47:05;;;;;;;6.22;2.20;;;;;;;;;;5029664;28;20213;-70
2022/07/15 01:49:31;;;;;;;6.13;2.65;;;;;;;;;;5027917;28;20293;-70
2022/07/15 01:51:58;;;;;;;8.32;2.78;;;;;;;;;;5033095;28;20190;-70
2022/07/15 01:54:26;;;;;;;10.75;2.28;;;;;;;;;;5018280;28;20177;-70
2022/07/15 01:56:52;;;;;;;5.57;2.45;;;;;;;;;;5021423;28;20186;-70
2022/07/15 01:59:18;;;;;;;6.22;2.10;;;;;;;;;;5025491;28;20928;-70
2022/07/15 02:01:44;;;;;;;10.50;3.05;;;;;;;;;;5033392;28;20243;-70
2022/07/15 02:04:10;;;;;;;6.75;2.08;;;;;;;;;;5024569;28;20186;-70
2022/07/15 02:06:36;;;;;;;6.88;2.17;;;;;;;;;;5023481;28;20174;-71
2022/07/15 02:09:02;;;;;;;6.45;2.17;;;;;;;;;;5031734;28;20289;-71
2022/07/15 02:11:28;;;;;;;5.68;2.38;;;;;;;;;;5026031;28;20178;-70
2022/07/15 02:13:57;;;;;;;7.03;2.30;;;;;;;;;;5035079;28;20198;-71
2022/07/15 02:16:24;;;;;;;5.32;1.90;;;;;;;;;;5025622;28;20220;-71
2022/07/15 02:18:49;;;;;;;8.52;2.22;;;;;;;;;;5021360;28;20266;-71
2022/07/15 02:21:14;;;;;;;8.95;2.55;;;;;;;;;;5023669;28;20313;-71
2022/07/15 02:23:40;;;;;;;5.68;1.88;;;;;;;;;;5027659;28;20205;-71
2022/07/15 02:26:05;;;;;;;8.20;2.10;;;;;;;;;;5023236;28;20183;-71
2022/07/15 02:28:31;;;;;;;9.63;2.22;;;;;;;;;;5024446;28;20181;-71
2022/07/15 02:30:56;;;;;;;4.72;2.17;;;;;;;;;;5028691;28;20236;-71
2022/07/15 02:33:22;;;;;;;9.98;2.30;;;;;;;;;;5022059;28;20725;-69
2022/07/15 02:35:47;;;;;;;6.22;1.95;;;;;;;;;;5031613;28;20212;-70
2022/07/15 02:38:13;;;;;;;5.75;2.20;;;;;;;;;;5020599;28;20178;-70
2022/07/15 02:40:38;;;;;;;10.90;2.30;;;;;;;;;;5022181;28;20183;-70
2022/07/15 02:43:04;;;;;;;7.97;2.13;;;;;;;;;;5030678;28;20181;-70
2022/07/15 02:45:34;;;;;;;8.38;2.38;;;;;;;;;;5036763;28;20190;-70
2022/07/15 02:47:59;;;;;;;10.15;2.45;;;;;;;;;;5024446;28;20242;-70
2022/07/15 02:50:25;;;;;;;6.70;2.20;;;;;;;;;;5026142;28;20675;-70
2022/07/15 02:52:50;;;;;;;6.18;2.10;;;;;;;;;;5027596;28;20190;-71
2022/07/15 02:55:16;;;;;;;6.70;2.25;;;;;;;;;;5022235;28;20254;-71
2022/07/15 02:57:42;;;;;;;6.25;2.00;;;;;;;;;;5021422;28;20231;-69
2022/07/15 03:00:11;;;;;;;6.63;2.50;;;;;;;;;;5028929;28;20387;-70
2022/07/15 03:02:37;;;;;;;10.48;2.83;;;;;;;;;;5019412;28;20534;-70
2022/07/15 03:05:03;;;;;;;6.95;2.10;;;;;;;;;;5020519;28;20510;-69
2022/07/15 03:07:28;;;;;;;7.32;2.35;;;;;;;;;;5025846;28;20190;-69
2022/07/15 03:09:54;;;;;;;7.95;2.20;;;;;;;;;;5016958;28;20217;-70
2022/07/15 03:12:20;;;;;;;4.07;1.80;;;;;;;;;;5015751;28;20190;-71
2022/07/15 03:14:45;;;;;;;6.15;2.20;;;;;;;;;;5017010;28;20252;-71
2022/07/15 03:17:11;;;;;;;4.95;2.10;;;;;;;;;;5014265;28;20182;-70
2022/07/15 03:19:36;;;;;;;8.23;2.25;;;;;;;;;;5019804;28;20649;-71
2022/07/15 03:22:02;;;;;;;5.80;2.10;;;;;;;;;;5016793;28;20309;-71
2022/07/15 03:24:27;;;;;;;5.30;2.42;;;;;;;;;;5026998;28;20598;-71
2022/07/15 03:26:53;;;;;;;5.03;2.10;;;;;;;;;;5024673;28;20692;-71
2022/07/15 03:29:18;;;;;;;10.18;2.10;;;;;;;;;;5029102;28;20685;-71
2022/07/15 03:31:44;;;;;;;6.07;2.15;;;;;;;;;;5025321;28;20263;-71
2022/07/15 03:34:10;;;;;;;9.18;2.30;;;;;;;;;;5027635;28;20182;-71
2022/07/15 03:36:37;;;;;;;11.82;2.20;;;;;;;;;;5023167;28;20193;-71
2022/07/15 03:39:03;;;;;;;9.63;2.33;;;;;;;;;;5016247;28;21451;-69
2022/07/15 03:41:29;;;;;;;8.50;2.15;;;;;;;;;;5027477;28;20197;-69
2022/07/15 03:43:54;;;;;;;10.93;2.20;;;;;;;;;;5018513;28;20344;-70
2022/07/15 03:46:19;;;;;;;9.40;2.50;;;;;;;;;;5019396;28;20595;-69
2022/07/15 03:48:45;;;;;;;9.13;2.30;;;;;;;;;;5011321;28;20274;-70
2022/07/15 03:51:10;;;;;;;8.32;2.13;;;;;;;;;;5012616;28;20186;-69
2022/07/15 03:53:35;;;;;;;9.70;2.38;;;;;;;;;;5017126;28;20214;-69
2022/07/15 03:56:01;;;;;;;9.50;2.75;;;;;;;;;;5030530;28;20213;-70
2022/07/15 03:58:26;;;;;;;5.50;2.20;;;;;;;;;;5023980;28;20185;-69
2022/07/15 04:00:51;;;;;;;9.65;2.42;;;;;;;;;;5030045;28;20197;-68
2022/07/15 04:03:17;;;;;;;6.15;2.22;;;;;;;;;;5016814;28;20200;-71
2022/07/15 04:05:43;;;;;;;3.97;1.90;;;;;;;;;;5013861;28;20236;-70
2022/07/15 04:08:08;;;;;;;7.88;2.53;;;;;;;;;;5036632;28;20367;-71
2022/07/15 04:10:34;;;;;;;9.15;2.33;;;;;;;;;;5014730;28;20202;-70
2022/07/15 04:12:59;;;;;;;10.95;3.10;;;;;;;;;;5016689;28;20182;-71
2022/07/15 04:15:25;;;;;;;8.13;2.28;;;;;;;;;;5021471;28;20186;-70
2022/07/15 04:17:50;;;;;;;9.15;2.45;;;;;;;;;;5026511;28;20824;-71
2022/07/15 04:20:16;;;;;;;9.57;2.40;;;;;;;;;;5013085;28;20174;-69
2022/07/15 04:22:42;;;;;;;6.65;2.10;;;;;;;;;;5020350;28;20182;-70
2022/07/15 04:25:15;;;;;;;8.70;2.45;;;;;;;;;;5029308;28;20186;-70
2022/07/15 04:27:41;;;;;;;10.88;2.60;;;;;;;;;;5017145;28;20244;-70
2022/07/15 04:30:07;;;;;;;6.80;2.03;;;;;;;;;;5029776;28;20611;-70
2022/07/15 04:32:33;;;;;;;8.70;2.28;;;;;;;;;;5014745;28;20206;-70
2022/07/15 04:34:58;;;;;;;10.77;2.65;;;;;;;;;;5021471;28;20239;-70
2022/07/15 04:37:23;;;;;;;6.57;2.63;;;;;;;;;;5037833;28;20273;-70
2022/07/15 04:39:49;;;;;;;7.80;2.92;;;;;;;;;;5025764;28;20185;-70
2022/07/15 04:42:14;;;;;;;5.20;2.00;;;;;;;;;;5019232;28;20181;-70
2022/07/15 04:44:40;;;;;;;7.32;1.98;;;;;;;;;;5032481;28;20177;-70
2022/07/15 04:47:05;;;;;;;8.95;2.25;;;;;;;;;;5027314;28;20184;-70
2022/07/15 04:52:15;;;;;;;8.07;2.47;;;;;;;;;;5026333;28;20568;-70
2022/07/15 04:54:40;;;;;;;9.25;2.28;;;;;;;;;;5025368;28;20208;-71
2022/07/15 04:57:06;;;;;;;12.65;2.58;;;;;;;;;;5018546;28;20650;-72
2022/07/15 04:59:32;;;;;;;8.85;2.10;;;;;;;;;;5033964;28;20668;-72
2022/07/15 05:01:58;;;;;;;9.20;2.00;;;;;;;;;;5022396;28;20206;-71
2022/07/15 05:04:23;;;;;;;5.28;2.08;;;;;;;;;;5014896;28;20254;-70
2022/07/15 05:06:49;;;;;;;9.60;2.10;;;;;;;;;;5015523;28;20223;-69
2022/07/15 05:09:14;;;;;;;11.48;2.15;;;;;;;;;;5017352;28;20217;-70
2022/07/15 05:11:39;;;;;;;10.60;1.83;;;;;;;;;;5015014;28;20179;-70
2022/07/15 05:14:05;;;;;;;8.27;2.92;;;;;;;;;;5018064;28;20269;-70
2022/07/15 05:16:30;;;;;;;9.88;2.50;;;;;;;;;;5024312;28;20561;-70
2022/07/15 05:18:56;;;;;;;8.15;2.78;;;;;;;;;;5023256;28;20631;-69
2022/07/15 05:21:22;;;;;;;5.40;1.98;;;;;;;;;;5016531;28;20239;-70
2022/07/15 05:23:47;;;;;;;8.38;2.53;;;;;;;;;;5029207;28;20182;-69
2022/07/15 05:26:12;;;;;;;9.13;2.45;;;;;;;;;;5020785;28;20481;-69
2022/07/15 05:28:39;;;;;;;11.02;2.65;;;;;;;;;;5027502;28;20182;-70
2022/07/15 05:31:05;;;;;;;6.57;1.95;;;;;;;;;;5034262;28;20214;-68
2022/07/15 05:33:30;;;;;;;11.77;2.10;;;;;;;;;;5023701;28;20183;-69
2022/07/15 05:35:56;;;;;;;6.65;2.10;;;;;;;;;;5018090;28;20189;-70
2022/07/15 05:38:22;;;;;;;9.93;1.98;;;;;;;;;;5040221;28;20507;-70
2022/07/15 05:40:48;;;;;;;12.90;2.38;;;;;;;;;;5030765;28;20261;-71
2022/07/15 05:43:13;;;;;;;7.10;2.00;;;;;;;;;;5019029;28;20191;-69
2022/07/15 05:45:38;;;;;;;7.88;2.03;;;;;;;;;;5029139;28;20205;-71
2022/07/15 05:48:04;;;;;;;8.77;2.03;;;;;;;;;;5017684;28;20187;-69
2022/07/15 05:50:30;;;;;;;9.48;2.00;;;;;;;;;;5030759;28;20206;-69
2022/07/15 05:52:55;;;;;;;8.80;1.88;;;;;;;;;;5041481;28;20177;-69
2022/07/15 05:55:21;;;;;;;9.27;1.83;;;;;;;;;;5026933;28;20174;-69
2022/07/15 05:57:46;;;;;;;5.72;1.55;;;;;;;;;;5029553;28;20186;-69
2022/07/15 06:00:12;;;;;;;6.20;1.50;;;;;;;;;;5033204;28;20642;-70
2022/07/15 06:02:37;;;;;;;9.38;1.70;;;;;;;;;;5029964;28;20201;-70
2022/07/15 06:05:03;;;;;;;5.50;1.20;;;;;;;;;;5025681;28;20779;-69
2022/07/15 06:07:28;;;;;;;4.45;1.30;;;;;;;;;;5034317;28;20666;-69
2022/07/15 06:09:54;;;;;;;6.82;1.25;;;;;;;;;;5021853;28;20681;-68
2022/07/15 06:12:19;;;;;;;7.85;1.50;;;;;;;;;;5028567;28;20198;-70
2022/07/15 06:14:44;;;;;;;7.40;1.50;;;;;;;;;;5024401;28;20194;-70
2022/07/15 06:17:10;;;;;;;5.28;1.15;;;;;;;;;;5027908;28;20244;-70
2022/07/15 06:19:35;;;;;;;4.05;0.95;;;;;;;;;;5026120;28;20576;-71
2022/07/15 06:22:01;;;;;;;6.18;0.80;;;;;;;;;;5031617;28;20304;-71
2022/07/15 06:24:27;;;;;;;4.38;1.40;;;;;;;;;;5033955;28;20261;-71
2022/07/15 06:26:52;;;;;;;4.70;0.65;;;;;;;;;;5019074;28;20181;-68
2022/07/15 06:29:18;;;;;;;6.90;0.80;;;;;;;;;;5034425;28;20727;-70
2022/07/15 06:31:43;;;;;;;2.15;0.50;;;;;;;;;;5034235;28;20210;-70
2022/07/15 06:34:09;;;;;;;3.30;0.77;;;;;;;;;;5029182;28;20208;-72
2022/07/15 06:36:35;;;;;;;3.90;0.55;;;;;;;;;;5028178;28;20175;-71
2022/07/15 06:39:01;;;;;;;7.03;0.90;;;;;;;;;;5028075;28;20189;-70
2022/07/15 06:41:26;;;;;;;4.47;1.08;;;;;;;;;;5029778;28;20189;-71
2022/07/15 06:43:51;;;;;;;4.20;0.80;;;;;;;;;;5028878;28;20602;-70
2022/07/15 06:46:17;;;;;;;2.75;0.70;;;;;;;;;;5029653;28;20667;-70
2022/07/15 06:48:42;;;;;;;3.22;0.70;;;;;;;;;;5032940;28;20619;-71
2022/07/15 06:51:08;;;;;;;5.65;0.40;;;;;;;;;;5023250;28;20209;-72
2022/07/15 06:53:33;;;;;;;6.20;0.80;;;;;;;;;;5023199;28;20178;-74
2022/07/15 06:55:59;;;;;;;6.97;0.70;;;;;;;;;;5032815;28;20243;-71
2022/07/15 06:58:24;;;;;;;4.70;0.40;;;;;;;;;;5022813;28;20186;-69
2022/07/15 07:00:49;;;;;;;1.20;0.57;;;;;;;;;;5025282;28;20224;-72
2022/07/15 07:03:15;;;;;;;3.22;0.45;;;;;;;;;;5021979;28;20210;-76
2022/07/15 07:05:40;;;;;;;4.47;0.50;;;;;;;;;;5030045;28;20195;-71
2022/07/15 07:08:06;;;;;;;2.90;1.05;;;;;;;;;;5040100;28;20178;-70
2022/07/15 07:10:32;;;;;;;2.10;0.63;;;;;;;;;;5021059;28;20199;-71
2022/07/15 07:12:58;;;;;;;3.72;0.47;;;;;;;;;;5027606;28;20226;-70
2022/07/15 07:15:23;;;;;;;2.63;0.50;;;;;;;;;;5034504;28;20220;-69
2022/07/15 07:17:50;;;;;;;4.15;0.60;;;;;;;;;;5027431;28;20191;-70
2022/07/15 07:20:16;;;;;;;2.80;0.50;;;;;;;;;;5025304;28;20178;-69
2022/07/15 07:22:41;;;;;;;4.30;0.40;;;;;;;;;;5036577;28;20555;-69
2022/07/15 07:25:07;;;;;;;3.90;0.50;;;;;;;;;;5045756;28;20220;-70
2022/07/15 07:27:32;;;;;;;1.60;0.60;;;;;;;;;;5028855;28;20194;-71
2022/07/15 07:29:58;;;;;;;1.92;0.50;;;;;;;;;;5034573;28;20231;-69
2022/07/15 07:32:23;;;;;;;2.92;0.60;;;;;;;;;;5015166;28;20217;-69
2022/07/15 07:34:48;;;;;;;1.48;0.40;;;;;;;;;;5015404;28;20516;-70
2022/07/15 07:37:14;;;;;;;4.72;0.68;;;;;;;;;;4325453;28;10000809;-71
2022/07/15 07:39:39;;;;;;;1.92;0.60;;;;;;;;;;5023208;28;20217;-70
2022/07/15 07:42:06;;;;;;;3.40;0.60;;;;;;;;;;5019945;28;20276;-68
2022/07/15 07:44:31;;;;;;;2.40;0.30;;;;;;;;;;5022694;28;20182;-65
2022/07/15 07:46:57;;;;;;;2.42;0.52;;;;;;;;;;5024396;28;20175;-68
2022/07/15 07:49:22;;;;;;;2.83;0.43;;;;;;;;;;5028481;28;20213;-71
2022/07/15 07:51:47;;;;;;;1.80;0.32;;;;;;;;;;5025242;28;20189;-68
2022/07/15 07:54:13;;;;;;;1.48;0.30;;;;;;;;;;5027585;28;20209;-69
2022/07/15 07:56:38;;;;;;;3.25;0.50;;;;;;;;;;5027653;28;20262;-68
2022/07/15 07:59:04;;;;;;;2.33;0.70;;;;;;;;;;5026516;28;20195;-65
2022/07/15 08:01:29;;;;;;;3.65;0.40;;;;;;;;;;4679605;28;10000685;-67
2022/07/15 08:03:55;;;;;;;4.30;0.52;;;;;;;;;;5019769;28;20185;-68
2022/07/15 08:06:22;;;;;;;4.28;0.68;;;;;;;;;;5021060;28;20190;-67
2022/07/15 08:08:48;;;;;;;1.10;0.40;;;;;;;;;;5015612;28;20367;-69
2022/07/15 08:11:14;;;;;;;2.17;0.65;;;;;;;;;;5015363;28;20619;-68
2022/07/15 08:13:39;;;;;;;2.97;0.40;;;;;;;;;;5011815;28;20182;-66
2022/07/15 08:16:06;;;;;;;2.63;0.28;;;;;;;;;;5025318;28;20259;-68
2022/07/15 08:18:32;;;;;;;1.38;0.35;;;;;;;;;;5025981;28;20181;-68
2022/07/15 08:20:58;;;;;;;3.33;0.50;;;;;;;;;;5023897;28;20505;-68
2022/07/15 08:23:23;;;;;;;1.88;0.35;;;;;;;;;;5028478;28;20182;-68
2022/07/15 08:25:50;;;;;;;1.35;0.35;;;;;;;;;;5016780;28;20577;-69
2022/07/15 08:28:17;;;;;;;3.70;0.35;;;;;;;;;;5017823;28;20218;-68
2022/07/15 08:30:44;;;;;;;2.13;0.60;;;;;;;;;;5017296;28;21002;-68
2022/07/15 08:33:09;;;;;;;2.35;0.43;;;;;;;;;;5032138;28;20196;-69
2022/07/15 08:35:35;;;;;;;2.47;0.63;;;;;;;;;;5015653;28;20194;-69
2022/07/15 08:38:06;;;;;;;3.13;0.50;;;;;;;;;;5035693;28;20193;-72
2022/07/15 08:40:32;;;;;;;2.10;0.55;;;;;;;;;;5020591;28;20567;-70
2022/07/15 08:42:57;;;;;;;4.68;0.50;;;;;;;;;;5023218;28;20293;-71
2022/07/15 08:45:23;;;;;;;1.77;0.22;;;;;;;;;;5023976;28;20209;-69
2022/07/15 08:47:51;;;;;;;2.35;0.40;;;;;;;;;;5017785;28;20201;-67
2022/07/15 08:50:18;;;;;;;2.13;0.38;;;;;;;;;;5018015;28;20234;-68
2022/07/15 08:52:45;;;;;;;0.95;0.25;;;;;;;;;;5033045;28;20244;-71
2022/07/15 08:55:11;;;;;;;0.82;0.30;;;;;;;;;;5024784;28;20221;-72
2022/07/15 08:57:36;;;;;;;0.90;0.20;;;;;;;;;;5017891;28;20598;-72
2022/07/15 09:00:04;;;;;;;1.40;0.30;;;;;;;;;;5030245;28;20174;-71
2022/07/15 09:02:30;;;;;;;1.92;0.30;;;;;;;;;;5023360;28;20204;-68
2022/07/15 09:05:17;;;;;;;1.65;0.22;;;;;;;;;;5025077;28;20232;-69
2022/07/15 09:07:53;;;;;;;0.63;0.30;;;;;;;;;;5027965;28;20181;-71
2022/07/15 09:10:21;;;;;;;5.00;0.57;;;;;;;;;;5031945;28;20217;-71
2022/07/15 09:12:51;;;;;;;0.75;0.28;;;;;;;;;;5014542;28;20192;-71
2022/07/15 09:15:35;;;;;;;1.85;0.35;;;;;;;;;;5040776;28;20532;-71
2022/07/15 09:18:11;;;;;;;0.75;0.25;;;;;;;;;;5024484;28;20429;-69
2022/07/15 09:20:38;;;;;;;2.08;0.25;;;;;;;;;;5022386;28;20630;-70
2022/07/15 09:23:04;;;;;;;0.95;0.28;;;;;;;;;;5025074;28;20192;-71
2022/07/15 09:25:33;;;;;;;2.13;0.55;;;;;;;;;;5026312;28;20556;-75
2022/07/15 09:28:04;;;;;;;2.08;0.50;;;;;;;;;;5015955;28;20674;-69
2022/07/15 09:33:34;;;;;;;2.05;0.20;;;;;;;;;;5031661;28;20201;-68
2022/07/15 09:36:03;;;;;;;1.63;0.28;;;;;;;;;;5024015;28;20645;-71
2022/07/15 09:38:40;;;;;;;3.65;0.30;;;;;;;;;;5036084;28;20185;-70
2022/07/15 09:41:07;;;;;;;1.23;0.28;;;;;;;;;;5020547;28;20181;-73
2022/07/15 09:43:49;;;;;;;0.70;0.30;;;;;;;;;;5023849;28;20190;-71
2022/07/15 09:46:15;;;;;;;2.15;0.25;;;;;;;;;;5028125;28;20186;-71
2022/07/15 09:48:43;;;;;;;0.80;0.38;;;;;;;;;;5027406;28;20217;-70
2022/07/15 09:51:09;;;;;;;1.15;0.20;;;;;;;;;;5025262;28;20205;-69
2022/07/15 09:53:35;;;;;;;4.65;0.40;;;;;;;;;;5022615;28;20521;-70
2022/07/15 09:56:03;;;;;;;1.60;0.22;;;;;;;;;;5020488;28;20189;-70
2022/07/15 09:58:29;;;;;;;0.40;0.30;;;;;;;;;;5019294;28;20192;-69
2022/07/15 10:00:55;;;;;;;2.75;0.30;;;;;;;;;;5026557;28;20596;-67
2022/07/15 10:03:23;;;;;;;0.57;0.28;;;;;;;;;;5023331;28;20601;-66
2022/07/15 10:05:53;;;;;;;1.88;0.30;;;;;;;;;;5024632;28;20268;-67
2022/07/15 10:08:19;;;;;;;0.98;0.22;;;;;;;;;;5033508;28;20243;-71
2022/07/15 10:10:45;;;;;;;0.43;0.22;;;;;;;;;;5024403;28;20279;-68
2022/07/15 10:13:47;;;;;;;0.70;0.30;;;;;;;;;;5019596;28;20650;-68
2022/07/15 10:16:30;;;;;;;1.05;0.40;;;;;;;;;;5027129;28;20181;-68
2022/07/15 10:19:13;;;;;;;1.20;0.30;;;;;;;;;;5040986;28;20189;-69
2022/07/15 10:21:53;;;;;;;2.25;0.30;;;;;;;;;;5019245;28;20219;-70
2022/07/15 10:24:21;;;;;;;1.88;0.30;;;;;;;;;;5028030;28;20261;-67
2022/07/15 10:27:04;;;;;;;2.20;0.30;;;;;;;;;;5025755;28;20186;-67
2022/07/15 10:29:30;;;;;;;0.38;0.20;;;;;;;;;;5022598;28;20238;-67
2022/07/15 10:31:58;;;;;;;1.80;0.60;;;;;;;;;;5026562;28;20571;-67
2022/07/15 10:34:29;;;;;;;0.40;0.20;;;;;;;;;;5026183;28;20181;-66
2022/07/15 10:36:59;;;;;;;0.73;0.20;;;;;;;;;;5023778;28;20220;-67
2022/07/15 10:39:28;;;;;;;0.82;0.22;;;;;;;;;;5036784;28;20408;-70
2022/07/15 10:42:02;;;;;;;0.60;0.20;;;;;;;;;;5028227;28;20426;-69
2022/07/15 10:44:30;;;;;;;1.88;0.60;;;;;;;;;;5029562;28;20192;-68
2022/07/15 10:47:14;;;;;;;2.50;0.30;;;;;;;;;;5024857;28;20189;-68
2022/07/15 10:49:46;;;;;;;0.65;0.40;;;;;;;;;;5025880;28;20560;-70
2022/07/15 10:52:18;;;;;;;2.85;0.38;;;;;;;;;;5017661;28;20188;-66
2022/07/15 10:54:54;;;;;;;0.98;0.32;;;;;;;;;;5026393;28;20597;-68
2022/07/15 10:57:20;;;;;;;0.63;0.30;;;;;;;;;;5020355;28;20575;-65
2022/07/15 10:59:54;;;;;;;0.47;0.25;;;;;;;;;;5011905;28;20248;-68
2022/07/15 11:02:21;;;;;;;0.40;0.20;;;;;;;;;;5023915;28;20196;-66
2022/07/15 11:04:49;;;;;;;1.75;0.20;;;;;;;;;;5020045;28;20708;-69
2022/07/15 11:07:14;;;;;;;0.52;0.20;;;;;;;;;;5031329;28;20195;-70
2022/07/15 11:09:55;;;;;;;1.08;0.30;;;;;;;;;;5035373;28;20555;-69
2022/07/15 11:12:32;;;;;;;0.63;0.20;;;;;;;;;;5028084;28;20263;-69
2022/07/15 11:15:04;;;;;;;1.58;0.30;;;;;;;;;;5020885;28;20283;-67
2022/07/15 11:17:29;;;;;;;3.60;0.47;;;;;;;;;;5035379;28;20265;-66
2022/07/15 11:20:03;;;;;;;0.40;0.20;;;;;;;;;;5024125;28;20278;-70
2022/07/15 11:22:28;;;;;;;4.95;0.28;;;;;;;;;;5026574;28;20261;-70
2022/07/15 11:24:55;;;;;;;0.75;0.20;;;;;;;;;;5036474;28;20215;-68
2022/07/15 11:27:22;;;;;;;0.93;0.30;;;;;;;;;;5024339;28;20626;-72
2022/07/15 11:29:51;;;;;;;1.13;0.30;;;;;;;;;;5022752;28;20633;-70
2022/07/15 11:32:18;;;;;;;1.55;0.30;;;;;;;;;;5027296;28;20979;-70
2022/07/15 11:34:47;;;;;;;0.75;0.30;;;;;;;;;;5031442;28;20390;-68
2022/07/15 11:37:18;;;;;;;0.63;0.30;;;;;;;;;;5018952;28;20196;-65
2022/07/15 11:40:04;;;;;;;0.73;0.40;;;;;;;;;;5039126;28;20308;-68
2022/07/15 11:45:31;;;;;;;2.50;0.43;;;;;;;;;;5030106;28;20184;-69
2022/07/15 11:47:56;;;;;;;0.68;0.20;;;;;;;;;;5027713;28;20522;-67
2022/07/15 11:50:22;;;;;;;4.90;0.43;;;;;;;;;;5029208;28;20257;-67
2022/07/15 11:52:50;;;;;;;0.73;0.47;;;;;;;;;;5028387;28;20347;-66
2022/07/15 11:55:17;;;;;;;0.90;0.40;;;;;;;;;;5033342;28;20187;-67
2022/07/15 11:57:46;;;;;;;1.48;0.50;;;;;;;;;;5023451;28;20632;-67
2022/07/15 12:00:13;;;;;;;1.60;0.43;;;;;;;;;;5027499;28;20189;-69
2022/07/15 12:02:38;;;;;;;0.85;0.30;;;;;;;;;;5033389;28;20193;-65
2022/07/15 12:05:06;;;;;;;2.38;0.40;;;;;;;;;;5008392;28;20627;-69
2022/07/15 12:07:44;;;;;;;0.98;0.30;;;;;;;;;;5029882;28;20660;-70
2022/07/15 12:10:11;;;;;;;1.70;0.43;;;;;;;;;;5033293;28;20204;-68
2022/07/15 12:12:56;;;;;;;1.40;0.30;;;;;;;;;;5043966;28;20186;-66
2022/07/15 12:15:22;;;;;;;1.92;0.30;;;;;;;;;;5019252;28;20546;-67
2022/07/15 12:17:49;;;;;;;1.60;0.40;;;;;;;;;;5026375;28;20200;-69
2022/07/15 12:20:14;;;;;;;1.30;0.30;;;;;;;;;;5026611;28;20186;-69
2022/07/15 12:23:03;;;;;;;0.40;0.20;;;;;;;;;;5027191;28;20238;-68
2022/07/15 12:25:28;;;;;;;2.65;0.52;;;;;;;;;;5030630;28;20185;-66
2022/07/15 12:27:54;;;;;;;1.70;0.40;;;;;;;;;;5026782;28;20633;-68
2022/07/15 12:30:29;;;;;;;1.40;0.30;;;;;;;;;;5027165;28;20292;-66
2022/07/15 12:33:19;;;;;;;1.08;0.45;;;;;;;;;;5023217;28;20212;-66
2022/07/15 12:35:45;;;;;;;1.75;0.40;;;;;;;;;;5009431;28;20206;-67
2022/07/15 12:38:25;;;;;;;2.75;0.47;;;;;;;;;;5032843;28;20850;-67
2022/07/15 12:40:50;;;;;;;2.53;0.40;;;;;;;;;;5028137;28;20640;-68
2022/07/15 12:43:15;;;;;;;2.78;0.75;;;;;;;;;;5027615;28;20190;-67
2022/07/15 12:45:42;;;;;;;2.35;0.50;;;;;;;;;;5026149;28;20181;-67
2022/07/15 12:48:13;;;;;;;1.27;0.52;;;;;;;;;;5029150;28;20221;-68
2022/07/15 12:50:50;;;;;;;1.17;0.50;;;;;;;;;;5016768;28;20199;-67
2022/07/15 12:53:17;;;;;;;1.63;0.40;;;;;;;;;;5026140;28;20538;-65
2022/07/15 12:55:47;;;;;;;0.70;0.40;;;;;;;;;;5023338;28;20185;-67
2022/07/15 12:58:15;;;;;;;1.80;0.55;;;;;;;;;;5027110;28;20178;-67
2022/07/15 13:00:43;;;;;;;1.30;0.70;;;;;;;;;;5034042;28;20184;-70
2022/07/15 13:03:11;;;;;;;2.70;0.50;;;;;;;;;;5025897;28;20234;-70
2022/07/15 13:05:38;;;;;;;1.00;0.40;;;;;;;;;;4319797;28;10000740;-69
2022/07/15 13:08:06;;;;;;;1.65;0.50;;;;;;;;;;5023952;28;20201;-70
2022/07/15 13:10:32;;;;;;;0.80;0.30;;;;;;;;;;5022809;28;20866;-68
2022/07/15 13:12:57;;;;;;;1.23;0.40;;;;;;;;;;5016770;28;20186;-69
2022/07/15 13:15:23;;;;;;;2.20;0.47;;;;;;;;;;5022609;28;20229;-71
2022/07/15 13:17:48;;;;;;;0.75;0.20;;;;;;;;;;5023080;28;20288;-71
2022/07/15 13:20:14;;;;;;;2.13;0.50;;;;;;;;;;5024171;28;20186;-72
2022/07/15 13:22:40;;;;;;;2.08;0.32;;;;;;;;;;5015551;28;20588;-71
2022/07/15 13:25:06;;;;;;;0.70;0.30;;;;;;;;;;5021025;28;20190;-70
2022/07/15 13:27:31;;;;;;;2.50;0.65;;;;;;;;;;5021950;28;20269;-68
2022/07/15 13:29:56;;;;;;;12.02;0.77;;;;;;;;;;5030289;28;20719;-73
2022/07/15 13:32:22;;;;;;;2.40;0.40;;;;;;;;;;5030854;28;20696;-69
2022/07/15 13:34:47;;;;;;;2.03;0.40;;;;;;;;;;5021949;28;20213;-70
2022/07/15 13:37:12;;;;;;;2.05;0.40;;;;;;;;;;5022808;28;20219;-68
2022/07/15 13:39:38;;;;;;;0.30;0.30;;;;;;;;;;5023276;28;20190;-70
2022/07/15 13:42:03;;;;;;;1.10;0.50;;;;;;;;;;5021468;28;20227;-68
2022/07/15 13:44:29;;;;;;;1.67;0.40;;;;;;;;;;5021360;28;20228;-71
2022/07/15 13:46:54;;;;;;;1.13;0.43;;;;;;;;;;5024047;28;20178;-68
2022/07/15 13:51:22;;;;;;;0.75;0.30;;;;;;;;;;5021665;28;20186;-68
2022/07/15 13:52:05;;;;;;;0.57;0.30;;;;;;;;;;5020393;28;20251;-69
2022/07/15 13:54:30;;;;;;;2.30;0.50;;;;;;;;;;5026824;28;20194;-70
2022/07/15 13:56:55;;;;;;;2.35;0.38;;;;;;;;;;5027259;28;20259;-70
2022/07/15 13:59:22;;;;;;;3.00;0.38;;;;;;;;;;5025260;28;20438;-68
2022/07/15 14:01:47;;;;;;;1.67;0.50;;;;;;;;;;5027545;28;20248;-69
2022/07/15 14:04:12;;;;;;;2.08;0.60;;;;;;;;;;5027159;28;21006;-69
2022/07/15 14:06:38;;;;;;;1.05;0.30;;;;;;;;;;5022815;28;20186;-68
2022/07/15 14:09:03;;;;;;;5.05;0.30;;;;;;;;;;5024417;28;20494;-70
2022/07/15 14:11:28;;;;;;;0.88;0.30;;;;;;;;;;5043935;28;20898;-70
2022/07/15 14:13:54;;;;;;;0.93;0.30;;;;;;;;;;5016591;28;20190;-68
2022/07/15 14:16:19;;;;;;;2.03;0.32;;;;;;;;;;5032269;28;20663;-70
2022/07/15 14:18:46;;;;;;;1.02;0.40;;;;;;;;;;5019204;28;20265;-69
2022/07/15 14:21:14;;;;;;;3.17;0.60;;;;;;;;;;5025526;28;20232;-66
2022/07/15 14:23:39;;;;;;;2.17;0.45;;;;;;;;;;5020903;28;20232;-71
2022/07/15 14:26:05;;;;;;;1.77;0.40;;;;;;;;;;5027139;28;20181;-66
2022/07/15 14:28:31;;;;;;;1.50;0.63;;;;;;;;;;5022377;28;20178;-66
2022/07/15 14:30:57;;;;;;;1.10;0.40;;;;;;;;;;5026170;28;20229;-67
2022/07/15 14:33:23;;;;;;;3.78;0.52;;;;;;;;;;5027851;28;20220;-68
2022/07/15 14:35:48;;;;;;;1.13;0.40;;;;;;;;;;5026775;28;20194;-66
2022/07/15 14:38:14;;;;;;;1.55;0.57;;;;;;;;;;5024941;28;20213;-65
2022/07/15 14:40:40;;;;;;;0.30;0.30;;;;;;;;;;5024913;28;20190;-66
2022/07/15 14:43:05;;;;;;;1.20;0.40;;;;;;;;;;5024222;28;20200;-71
2022/07/15 14:45:31;;;;;;;0.85;0.38;;;;;;;;;;5024955;28;20724;-66
2022/07/15 14:47:56;;;;;;;1.90;0.40;;;;;;;;;;5024006;28;20189;-66
2022/07/15 14:50:21;;;;;;;1.50;0.40;;;;;;;;;;5023968;28;20284;-70